Time;durP1;ratioP1;P1;durP2;ratioP2;P2;SDS_P1;SDS_P2;PMS_P1;PMS_P2;Temp;Humidity;BMP_temperature;BMP_pressure;BME280_temperature;BME280_humidity;BME280_pressure;Samples;Min_cycle;Max_cycle;Signal;HPM_P1;HPM_P2
2023/04/17 00:02:01;;;;;;;14.90;10.67;;;8.10;99.90;;;;;;4967936;28;20240;-65
2023/04/17 00:04:27;;;;;;;14.20;9.43;;;8.10;99.90;;;;;;4964001;28;20197;-66
2023/04/17 00:06:52;;;;;;;11.93;10.73;;;8.00;99.90;;;;;;4972356;28;20201;-65
2023/04/17 00:09:18;;;;;;;12.50;10.63;;;8.00;99.90;;;;;;4965190;28;20200;-65
2023/04/17 00:11:44;;;;;;;14.27;10.40;;;8.00;99.90;;;;;;4968078;28;20228;-65
2023/04/17 00:14:09;;;;;;;12.67;9.97;;;8.00;99.90;;;;;;4968108;28;20207;-65
2023/04/17 00:16:35;;;;;;;13.83;10.30;;;8.00;99.90;;;;;;4968589;28;20205;-65
2023/04/17 00:19:00;;;;;;;12.60;10.63;;;8.00;99.90;;;;;;4967265;28;20208;-65
2023/04/17 00:21:28;;;;;;;13.43;10.17;;;8.00;99.90;;;;;;4968698;28;20259;-68
2023/04/17 00:23:54;;;;;;;12.47;9.93;;;8.00;99.90;;;;;;4967750;28;20216;-65
2023/04/17 00:26:19;;;;;;;13.67;10.47;;;8.00;99.90;;;;;;4967668;28;20204;-65
2023/04/17 00:28:46;;;;;;;13.20;10.37;;;8.00;99.90;;;;;;4967331;28;20193;-64
2023/04/17 00:31:11;;;;;;;13.30;10.57;;;8.00;99.90;;;;;;4970939;28;20284;-65
2023/04/17 00:33:37;;;;;;;11.47;10.27;;;8.00;99.90;;;;;;4973137;28;20861;-76
2023/04/17 00:36:03;;;;;;;13.63;10.60;;;8.00;99.90;;;;;;4965287;28;20236;-76
2023/04/17 00:38:28;;;;;;;12.20;10.37;;;8.00;99.90;;;;;;4968984;28;20210;-75
2023/04/17 00:40:54;;;;;;;12.70;9.67;;;8.00;99.90;;;;;;4965490;28;20216;-76
2023/04/17 00:43:20;;;;;;;13.13;10.57;;;7.90;99.90;;;;;;4967325;28;20691;-70
2023/04/17 00:45:46;;;;;;;12.90;10.30;;;8.00;99.90;;;;;;4949908;28;20204;-74
2023/04/17 00:48:14;;;;;;;11.43;10.23;;;8.00;99.90;;;;;;4967577;28;20213;-74
2023/04/17 00:50:40;;;;;;;14.07;11.37;;;7.90;99.90;;;;;;4974339;28;20786;-75
2023/04/17 00:53:06;;;;;;;13.03;10.20;;;7.90;99.90;;;;;;4967646;28;20197;-74
2023/04/17 00:55:33;;;;;;;10.93;9.50;;;7.90;99.90;;;;;;4968125;28;20710;-74
2023/04/17 00:57:59;;;;;;;13.67;11.20;;;7.80;99.90;;;;;;4967913;28;20241;-74
2023/04/17 01:00:25;;;;;;;15.27;11.30;;;7.70;99.90;;;;;;4969462;28;20295;-74
2023/04/17 01:02:51;;;;;;;15.27;10.03;;;7.70;99.90;;;;;;4968299;28;20212;-73
2023/04/17 01:05:16;;;;;;;12.13;10.07;;;7.70;99.90;;;;;;4966652;28;20193;-74
2023/04/17 01:07:44;;;;;;;11.07;9.97;;;7.60;99.90;;;;;;4965449;28;20379;-71
2023/04/17 01:10:10;;;;;;;17.17;10.77;;;7.50;99.90;;;;;;4968329;28;20203;-77
2023/04/17 01:12:35;;;;;;;14.80;10.50;;;7.40;99.90;;;;;;4965310;28;20838;-76
2023/04/17 01:15:01;;;;;;;14.53;11.07;;;7.40;99.90;;;;;;4967146;28;20213;-72
2023/04/17 01:17:27;;;;;;;14.40;10.30;;;7.30;99.90;;;;;;4955945;28;20223;-71
2023/04/17 01:19:53;;;;;;;13.67;10.93;;;7.30;99.90;;;;;;4961523;28;20216;-74
2023/04/17 01:22:19;;;;;;;13.87;11.43;;;7.30;99.90;;;;;;4967002;28;20221;-70
2023/04/17 01:24:45;;;;;;;11.90;10.40;;;7.30;99.90;;;;;;4967254;28;20288;-72
2023/04/17 01:27:14;;;;;;;12.43;10.27;;;7.30;99.90;;;;;;4967404;28;20270;-72
2023/04/17 01:29:40;;;;;;;14.00;10.73;;;7.30;99.90;;;;;;4949445;28;20228;-71
2023/04/17 01:32:06;;;;;;;14.30;10.97;;;7.30;99.90;;;;;;4947483;28;20201;-74
2023/04/17 01:34:32;;;;;;;12.93;10.70;;;7.20;99.90;;;;;;4966599;28;20232;-74
2023/04/17 01:36:57;;;;;;;17.10;11.37;;;7.20;99.90;;;;;;4966478;28;20258;-76
2023/04/17 01:39:23;;;;;;;14.53;11.53;;;7.20;99.90;;;;;;4966404;28;20201;-75
2023/04/17 01:41:50;;;;;;;13.03;10.43;;;7.20;99.90;;;;;;4966610;28;20204;-74
2023/04/17 01:44:16;;;;;;;16.53;11.07;;;7.20;99.90;;;;;;4964614;28;21061;-76
2023/04/17 01:46:41;;;;;;;12.93;9.77;;;7.20;99.90;;;;;;4967274;28;20260;-75
2023/04/17 01:49:07;;;;;;;14.30;10.67;;;7.20;99.90;;;;;;4967558;28;20814;-75
2023/04/17 01:51:32;;;;;;;13.93;11.03;;;7.20;99.90;;;;;;4967061;28;20629;-75
2023/04/17 01:53:58;;;;;;;13.13;10.03;;;7.10;99.90;;;;;;4967952;28;20549;-76
2023/04/17 01:56:23;;;;;;;22.57;11.40;;;7.10;99.90;;;;;;4964274;28;20256;-73
2023/04/17 01:58:50;;;;;;;12.33;9.70;;;7.10;99.90;;;;;;4967549;28;20643;-77
2023/04/17 02:01:16;;;;;;;12.03;10.73;;;7.00;99.90;;;;;;4965778;28;20743;-76
2023/04/17 02:03:41;;;;;;;13.10;10.60;;;7.00;99.90;;;;;;4975855;28;20217;-77
2023/04/17 02:06:07;;;;;;;15.80;10.80;;;7.00;99.90;;;;;;4966351;28;20201;-75
2023/04/17 02:08:33;;;;;;;17.13;10.90;;;6.90;99.90;;;;;;4964423;28;20293;-75
2023/04/17 02:10:58;;;;;;;14.33;10.73;;;6.90;99.90;;;;;;4971697;28;20671;-75
2023/04/17 02:13:24;;;;;;;13.13;10.87;;;6.90;99.90;;;;;;4967723;28;20703;-75
2023/04/17 02:15:50;;;;;;;14.73;11.87;;;6.80;99.90;;;;;;4967291;28;20193;-74
2023/04/17 02:18:15;;;;;;;32.10;10.70;;;6.80;99.90;;;;;;4966916;28;20229;-77
2023/04/17 02:20:41;;;;;;;12.93;10.57;;;6.80;99.90;;;;;;4963596;28;20331;-74
2023/04/17 02:23:07;;;;;;;13.33;10.77;;;6.70;99.90;;;;;;4965737;28;20216;-74
2023/04/17 02:25:33;;;;;;;19.90;11.00;;;6.70;99.90;;;;;;4966119;28;20288;-74
2023/04/17 02:27:58;;;;;;;15.77;12.20;;;6.70;99.90;;;;;;4963845;28;20948;-75
2023/04/17 02:30:25;;;;;;;14.87;11.13;;;6.60;99.90;;;;;;4965958;28;20197;-73
2023/04/17 02:32:52;;;;;;;13.47;10.63;;;6.70;99.90;;;;;;4968019;28;20295;-73
2023/04/17 02:35:19;;;;;;;12.57;11.27;;;6.60;99.90;;;;;;4971389;28;20214;-75
2023/04/17 02:37:44;;;;;;;15.17;11.43;;;6.60;99.90;;;;;;4975060;28;20228;-72
2023/04/17 02:40:10;;;;;;;16.90;11.30;;;6.60;99.90;;;;;;4974580;28;20558;-74
2023/04/17 02:42:35;;;;;;;15.43;11.57;;;6.60;99.90;;;;;;4969881;28;20611;-73
2023/04/17 02:45:03;;;;;;;19.73;12.37;;;6.60;99.90;;;;;;4967289;28;20240;-73
2023/04/17 02:47:28;;;;;;;15.30;10.67;;;6.60;99.90;;;;;;4966208;28;20683;-73
2023/04/17 02:49:55;;;;;;;14.83;11.83;;;6.50;99.90;;;;;;4966599;28;20201;-74
2023/04/17 02:52:21;;;;;;;14.13;11.47;;;6.50;99.90;;;;;;4966849;28;20255;-73
2023/04/17 02:54:46;;;;;;;15.77;12.87;;;6.50;99.90;;;;;;4966963;28;20201;-72
2023/04/17 02:57:12;;;;;;;12.90;11.07;;;6.40;99.90;;;;;;4968052;28;20205;-73
2023/04/17 02:59:37;;;;;;;14.83;10.93;;;6.40;99.90;;;;;;4968747;28;20201;-73
2023/04/17 03:02:04;;;;;;;14.57;11.67;;;6.30;99.90;;;;;;4966076;28;20252;-74
2023/04/17 03:04:29;;;;;;;12.47;11.13;;;6.40;99.90;;;;;;4969123;28;20240;-74
2023/04/17 03:06:55;;;;;;;18.23;12.00;;;6.30;99.90;;;;;;4968883;28;20232;-73
2023/04/17 03:09:21;;;;;;;16.63;10.73;;;6.40;99.90;;;;;;4967175;28;20197;-74
2023/04/17 03:11:50;;;;;;;15.77;11.30;;;6.30;99.90;;;;;;4969369;28;20727;-74
2023/04/17 03:14:15;;;;;;;12.93;11.60;;;6.30;99.90;;;;;;4969830;28;20562;-75
2023/04/17 03:16:41;;;;;;;17.17;11.53;;;6.20;99.90;;;;;;4968460;28;20215;-74
2023/04/17 03:19:07;;;;;;;15.87;12.60;;;6.20;99.90;;;;;;4971021;28;20216;-76
2023/04/17 03:21:32;;;;;;;15.53;11.50;;;6.20;99.90;;;;;;4971124;28;20236;-77
2023/04/17 03:23:57;;;;;;;16.43;11.23;;;6.20;99.90;;;;;;4968405;28;20217;-76
2023/04/17 03:26:23;;;;;;;15.97;12.40;;;6.20;99.90;;;;;;4970783;28;20206;-76
2023/04/17 03:28:48;;;;;;;13.70;11.30;;;6.20;99.90;;;;;;4967258;28;20201;-76
2023/04/17 03:31:14;;;;;;;17.50;12.03;;;6.20;99.90;;;;;;4967426;28;20228;-76
2023/04/17 03:33:40;;;;;;;14.30;12.10;;;6.20;99.90;;;;;;4965808;28;20315;-74
2023/04/17 03:36:06;;;;;;;13.20;11.80;;;6.20;99.90;;;;;;4949621;28;20601;-76
2023/04/17 03:38:32;;;;;;;16.80;12.63;;;6.20;99.90;;;;;;4967826;28;20640;-76
2023/04/17 03:40:58;;;;;;;17.00;13.13;;;6.20;99.90;;;;;;4967926;28;20217;-75
2023/04/17 03:43:24;;;;;;;17.60;12.27;;;6.20;99.90;;;;;;4967881;28;20233;-74
2023/04/17 03:45:49;;;;;;;18.60;13.33;;;6.20;99.90;;;;;;4966470;28;20217;-73
2023/04/17 03:48:14;;;;;;;20.13;13.93;;;6.10;99.90;;;;;;4966866;28;20205;-77
2023/04/17 03:50:40;;;;;;;14.73;12.77;;;6.10;99.90;;;;;;4969121;28;20201;-75
2023/04/17 03:53:06;;;;;;;20.13;13.13;;;6.10;99.90;;;;;;4969230;28;20283;-77
2023/04/17 03:55:31;;;;;;;15.87;13.17;;;6.00;99.90;;;;;;4966218;28;20233;-75
2023/04/17 03:57:57;;;;;;;17.40;12.73;;;6.00;99.90;;;;;;4965916;28;20288;-76
2023/04/17 04:00:23;;;;;;;19.23;13.80;;;6.00;99.90;;;;;;4966777;28;20239;-75
2023/04/17 04:02:48;;;;;;;16.33;13.93;;;6.00;99.90;;;;;;4966822;28;20212;-75
2023/04/17 04:05:14;;;;;;;17.00;13.17;;;5.90;99.90;;;;;;4966490;28;20262;-78
2023/04/17 04:07:39;;;;;;;16.90;13.60;;;5.90;99.90;;;;;;4967735;28;20209;-75
2023/04/17 04:10:06;;;;;;;18.80;13.60;;;5.90;99.90;;;;;;4969944;28;20288;-82
2023/04/17 04:12:31;;;;;;;16.63;13.13;;;5.80;99.90;;;;;;4974500;28;20299;-76
2023/04/17 04:14:57;;;;;;;18.23;14.43;;;5.80;99.90;;;;;;4972864;28;20606;-81
2023/04/17 04:17:22;;;;;;;19.53;13.93;;;5.80;99.90;;;;;;4964741;28;20308;-76
2023/04/17 04:19:47;;;;;;;18.10;13.83;;;5.80;99.90;;;;;;4975415;28;20205;-74
2023/04/17 04:22:13;;;;;;;20.07;14.07;;;5.80;99.90;;;;;;4978627;28;20201;-73
2023/04/17 04:24:39;;;;;;;15.53;13.43;;;5.80;99.90;;;;;;4977581;28;20206;-74
2023/04/17 04:27:08;;;;;;;21.90;14.83;;;5.80;99.90;;;;;;4975967;28;20500;-73
2023/04/17 04:29:36;;;;;;;19.43;14.40;;;5.80;99.90;;;;;;4978073;28;20203;-74
2023/04/17 04:32:02;;;;;;;20.50;15.93;;;5.80;99.90;;;;;;4977835;28;20254;-75
2023/04/17 04:34:28;;;;;;;19.30;15.67;;;5.90;99.90;;;;;;4977526;28;20667;-74
2023/04/17 04:36:55;;;;;;;20.70;15.47;;;6.00;99.90;;;;;;4979383;28;20204;-75
2023/04/17 04:39:20;;;;;;;22.73;15.50;;;5.90;99.90;;;;;;4973264;28;20857;-74
2023/04/17 04:41:50;;;;;;;19.03;14.33;;;5.90;99.90;;;;;;4977753;28;20268;-73
2023/04/17 04:44:16;;;;;;;21.33;14.63;;;6.00;99.90;;;;;;4977072;28;20213;-73
2023/04/17 04:46:42;;;;;;;17.73;14.30;;;6.00;99.90;;;;;;4976532;28;20208;-72
2023/04/17 04:49:07;;;;;;;19.97;15.37;;;6.00;99.90;;;;;;4977272;28;20196;-72
2023/04/17 04:51:34;;;;;;;20.77;14.20;;;6.00;99.90;;;;;;4981706;28;20212;-72
2023/04/17 04:53:59;;;;;;;21.03;15.03;;;6.10;99.90;;;;;;4977273;28;20742;-73
2023/04/17 04:56:25;;;;;;;20.00;16.33;;;6.10;99.90;;;;;;4959355;28;20204;-74
2023/04/17 04:58:50;;;;;;;18.67;14.37;;;6.20;99.90;;;;;;4977305;28;20204;-74
2023/04/17 05:01:19;;;;;;;17.53;14.10;;;6.20;99.90;;;;;;4974448;28;20193;-75
2023/04/17 05:03:45;;;;;;;19.87;15.13;;;6.20;99.90;;;;;;4979507;28;20305;-75
2023/04/17 05:06:12;;;;;;;21.23;15.67;;;6.30;99.90;;;;;;4973875;28;20295;-73
2023/04/17 05:08:41;;;;;;;19.70;15.13;;;6.30;99.90;;;;;;4976660;28;20291;-73
2023/04/17 05:11:06;;;;;;;17.00;14.37;;;6.40;99.90;;;;;;4977008;28;20197;-75
2023/04/17 05:13:32;;;;;;;19.03;16.17;;;6.40;99.90;;;;;;4966478;28;20212;-73
2023/04/17 05:15:58;;;;;;;21.13;15.30;;;6.40;99.90;;;;;;4967072;28;20212;-76
2023/04/17 05:18:23;;;;;;;20.90;15.97;;;6.40;99.90;;;;;;4967007;28;20766;-73
2023/04/17 05:20:50;;;;;;;24.03;15.10;;;6.40;99.90;;;;;;4966594;28;20451;-75
2023/04/17 05:23:15;;;;;;;22.90;14.87;;;6.40;99.90;;;;;;4966725;28;20271;-74
2023/04/17 05:25:41;;;;;;;19.00;14.43;;;6.40;99.90;;;;;;4965002;28;20209;-74
2023/04/17 05:28:06;;;;;;;22.17;17.07;;;6.50;99.90;;;;;;4970272;28;20683;-74
2023/04/17 05:30:32;;;;;;;22.13;16.23;;;6.50;99.90;;;;;;4963915;28;20620;-74
2023/04/17 05:32:59;;;;;;;20.00;16.37;;;6.50;99.90;;;;;;4967064;28;20232;-75
2023/04/17 05:35:26;;;;;;;23.97;16.60;;;6.60;99.90;;;;;;4967019;28;20208;-74
2023/04/17 05:37:52;;;;;;;23.30;15.97;;;6.60;99.90;;;;;;4971303;28;20196;-73
2023/04/17 05:40:17;;;;;;;24.77;18.07;;;6.60;99.90;;;;;;4976175;28;20236;-77
2023/04/17 05:42:43;;;;;;;23.03;18.30;;;6.70;99.90;;;;;;4976104;28;20866;-76
2023/04/17 05:45:12;;;;;;;23.50;17.97;;;6.70;99.90;;;;;;4976567;28;20267;-77
2023/04/17 05:47:37;;;;;;;21.83;17.63;;;6.70;99.90;;;;;;4966796;28;20197;-77
2023/04/17 05:50:03;;;;;;;23.07;16.70;;;6.80;99.90;;;;;;4975157;28;20255;-76
2023/04/17 05:52:29;;;;;;;21.03;16.20;;;6.80;99.90;;;;;;4976016;28;20291;-74
2023/04/17 05:54:55;;;;;;;21.93;16.93;;;6.80;99.90;;;;;;4976306;28;20618;-75
2023/04/17 05:57:20;;;;;;;22.20;17.50;;;6.70;99.90;;;;;;4975867;28;20314;-75
2023/04/17 05:59:46;;;;;;;24.93;18.20;;;6.80;99.90;;;;;;4975265;28;20809;-75
2023/04/17 06:02:11;;;;;;;26.30;19.90;;;6.70;99.90;;;;;;4974397;28;20219;-75
2023/04/17 06:04:37;;;;;;;28.40;20.07;;;6.70;99.90;;;;;;4966294;28;20232;-75
2023/04/17 06:07:04;;;;;;;31.80;19.73;;;6.70;99.90;;;;;;4966667;28;20209;-76
2023/04/17 06:09:30;;;;;;;29.97;19.77;;;6.70;99.90;;;;;;4967856;28;20226;-76
2023/04/17 06:11:56;;;;;;;24.33;18.10;;;6.70;99.90;;;;;;4964822;28;20615;-76
2023/04/17 06:14:21;;;;;;;23.47;19.33;;;6.80;99.90;;;;;;4965658;28;20231;-75
2023/04/17 06:16:47;;;;;;;27.63;19.97;;;6.90;99.90;;;;;;4966905;28;20201;-76
2023/04/17 06:19:13;;;;;;;25.60;19.87;;;6.90;99.90;;;;;;4970105;28;20264;-75
2023/04/17 06:21:38;;;;;;;27.63;19.03;;;7.10;99.90;;;;;;4970145;28;20709;-75
2023/04/17 06:24:04;;;;;;;25.67;17.93;;;7.10;99.90;;;;;;4970781;28;20810;-75
2023/04/17 06:26:30;;;;;;;26.33;19.20;;;7.10;99.90;;;;;;4970328;28;20204;-75
2023/04/17 06:28:55;;;;;;;24.97;19.07;;;7.10;99.90;;;;;;4970917;28;20199;-74
2023/04/17 06:31:21;;;;;;;28.33;19.17;;;7.10;99.90;;;;;;4968091;28;20196;-75
2023/04/17 06:33:48;;;;;;;26.70;19.63;;;7.20;99.90;;;;;;4969903;28;20614;-75
2023/04/17 06:36:14;;;;;;;24.43;18.77;;;7.30;99.90;;;;;;4969357;28;20236;-75
2023/04/17 06:38:40;;;;;;;24.23;19.43;;;7.40;99.90;;;;;;4977422;28;21021;-74
2023/04/17 06:41:05;;;;;;;25.57;18.93;;;7.60;99.90;;;;;;4979653;28;20200;-75
2023/04/17 06:43:31;;;;;;;23.03;18.20;;;7.70;99.90;;;;;;4969967;28;20581;-73
2023/04/17 06:45:57;;;;;;;27.40;18.73;;;7.80;99.90;;;;;;4979772;28;20213;-75
2023/04/17 06:48:23;;;;;;;24.27;19.90;;;7.90;99.90;;;;;;4979636;28;20205;-75
2023/04/17 06:50:49;;;;;;;23.67;18.43;;;8.10;99.90;;;;;;4979611;28;20200;-75
2023/04/17 06:53:14;;;;;;;22.03;17.97;;;8.20;99.90;;;;;;4983519;28;20196;-75
2023/04/17 06:55:40;;;;;;;23.77;17.03;;;8.20;99.90;;;;;;4977384;28;20213;-75
2023/04/17 06:58:07;;;;;;;24.47;18.80;;;8.30;99.90;;;;;;4979108;28;20208;-74
2023/04/17 07:00:32;;;;;;;23.87;18.00;;;8.40;99.90;;;;;;4979248;28;20346;-74
2023/04/17 07:02:58;;;;;;;25.30;19.97;;;8.60;99.90;;;;;;4980708;28;20213;-75
2023/04/17 07:05:23;;;;;;;23.60;18.07;;;8.70;99.90;;;;;;4978212;28;20688;-75
2023/04/17 07:07:49;;;;;;;23.93;18.50;;;8.70;99.90;;;;;;4975644;28;20209;-75
2023/04/17 07:10:18;;;;;;;24.73;20.10;;;8.90;99.90;;;;;;4978523;28;20197;-75
2023/04/17 07:12:43;;;;;;;21.90;17.67;;;9.00;99.90;;;;;;4979046;28;20454;-75
2023/04/17 07:15:09;;;;;;;24.97;17.93;;;9.00;99.90;;;;;;4967778;28;20524;-74
2023/04/17 07:17:35;;;;;;;19.97;16.90;;;9.00;99.90;;;;;;4969508;28;20213;-73
2023/04/17 07:20:01;;;;;;;24.20;17.50;;;8.90;99.90;;;;;;4972808;28;20569;-74
2023/04/17 07:22:26;;;;;;;19.97;16.97;;;8.90;99.90;;;;;;4966954;28;20690;-76
2023/04/17 07:24:51;;;;;;;23.23;17.30;;;8.90;99.90;;;;;;4948734;28;20213;-75
2023/04/17 07:27:17;;;;;;;21.67;15.47;;;9.00;99.90;;;;;;4969526;28;20197;-75
2023/04/17 07:29:45;;;;;;;18.40;16.50;;;8.90;99.90;;;;;;4969564;28;20279;-76
2023/04/17 07:32:12;;;;;;;20.27;15.83;;;9.00;99.90;;;;;;4969149;28;20200;-76
2023/04/17 07:34:40;;;;;;;21.90;16.77;;;8.90;99.90;;;;;;4966940;28;20232;-75
2023/04/17 07:37:05;;;;;;;23.17;18.27;;;9.00;99.90;;;;;;4968532;28;20201;-75
2023/04/17 07:39:31;;;;;;;21.53;17.23;;;9.10;99.90;;;;;;4968973;28;20548;-75
2023/04/17 07:41:56;;;;;;;24.60;18.73;;;9.20;99.90;;;;;;4968508;28;20245;-73
2023/04/17 07:44:22;;;;;;;19.97;15.67;;;9.30;99.90;;;;;;4968420;28;20216;-73
2023/04/17 07:46:47;;;;;;;21.90;17.00;;;9.00;99.90;;;;;;4967087;28;20208;-73
2023/04/17 07:49:13;;;;;;;21.10;16.73;;;8.90;99.90;;;;;;4972509;28;20511;-74
2023/04/17 07:51:39;;;;;;;23.40;17.47;;;9.10;99.90;;;;;;4978242;28;20748;-74
2023/04/17 07:54:05;;;;;;;20.97;17.30;;;9.30;99.90;;;;;;4978299;28;20208;-75
2023/04/17 07:56:33;;;;;;;21.33;15.97;;;9.50;99.90;;;;;;4977954;28;20769;-75
2023/04/17 07:58:58;;;;;;;21.27;17.03;;;9.40;99.90;;;;;;4976545;28;20211;-75
2023/04/17 08:01:25;;;;;;;20.53;16.50;;;9.50;99.90;;;;;;4977956;28;20633;-75
2023/04/17 08:03:50;;;;;;;25.50;17.30;;;9.60;99.90;;;;;;4979511;28;20217;-72
2023/04/17 08:06:16;;;;;;;22.70;16.37;;;9.90;99.90;;;;;;4981278;28;20205;-76
2023/04/17 08:08:46;;;;;;;17.83;15.93;;;10.30;99.90;;;;;;4977893;28;20211;-74
2023/04/17 08:11:15;;;;;;;23.87;15.27;;;10.60;99.90;;;;;;4977655;28;20440;-77
2023/04/17 08:13:40;;;;;;;19.83;15.33;;;10.80;99.90;;;;;;4982538;28;20209;-92
2023/04/17 08:16:07;;;;;;;23.83;17.40;;;11.10;99.90;;;;;;4977931;28;20205;-88
2023/04/17 08:18:33;;;;;;;22.27;17.43;;;11.30;99.90;;;;;;4968768;28;20205;-73
2023/04/17 08:20:58;;;;;;;20.63;15.60;;;11.50;99.90;;;;;;4970759;28;20217;-74
2023/04/17 08:23:24;;;;;;;18.67;15.70;;;11.30;99.90;;;;;;4976534;28;20279;-75
2023/04/17 08:25:50;;;;;;;23.37;15.70;;;11.10;99.90;;;;;;4969253;28;20196;-74
2023/04/17 08:28:15;;;;;;;18.93;15.90;;;11.40;99.90;;;;;;4977833;28;20213;-74
2023/04/17 08:30:41;;;;;;;17.37;15.43;;;11.20;99.90;;;;;;4977746;28;20514;-74
2023/04/17 08:33:06;;;;;;;21.13;15.70;;;11.50;99.90;;;;;;4978692;28;20569;-64
2023/04/17 08:35:32;;;;;;;18.87;14.70;;;11.70;99.90;;;;;;4974655;28;20698;-63
2023/04/17 08:37:58;;;;;;;19.13;15.70;;;11.60;99.90;;;;;;4964653;28;20240;-63
2023/04/17 08:40:25;;;;;;;19.57;14.27;;;11.30;99.90;;;;;;4966516;28;20213;-64
2023/04/17 08:42:52;;;;;;;21.17;16.43;;;11.10;99.90;;;;;;4967365;28;20213;-63
2023/04/17 08:45:19;;;;;;;18.13;16.10;;;10.70;99.90;;;;;;4974966;28;20205;-66
2023/04/17 08:47:45;;;;;;;21.43;16.97;;;10.60;99.90;;;;;;4966774;28;20687;-62
2023/04/17 08:50:19;;;;;;;22.97;16.13;;;10.70;99.90;;;;;;4967648;28;20236;-65
2023/04/17 08:52:46;;;;;;;17.73;14.80;;;10.70;99.90;;;;;;4967164;28;20569;-64
2023/04/17 08:55:14;;;;;;;16.83;13.80;;;10.60;99.90;;;;;;4967746;28;20209;-63
2023/04/17 08:57:59;;;;;;;21.87;15.90;;;10.50;99.90;;;;;;4965524;28;20289;-63
2023/04/17 09:00:30;;;;;;;21.67;16.30;;;10.80;99.90;;;;;;4967751;28;20213;-65
2023/04/17 09:02:57;;;;;;;21.10;15.37;;;10.80;99.90;;;;;;4964687;28;20270;-64
2023/04/17 09:05:24;;;;;;;19.57;15.03;;;10.60;99.90;;;;;;4967143;28;20204;-64
2023/04/17 09:08:04;;;;;;;17.00;14.33;;;10.40;99.90;;;;;;4965931;28;20208;-65
2023/04/17 09:10:36;;;;;;;21.23;14.97;;;10.50;99.90;;;;;;4966624;28;20225;-65
2023/04/17 09:13:02;;;;;;;19.33;15.23;;;10.70;99.90;;;;;;4967532;28;20839;-65
2023/04/17 09:15:28;;;;;;;16.13;13.73;;;10.90;99.90;;;;;;4967808;28;20208;-65
2023/04/17 09:17:54;;;;;;;14.37;12.70;;;11.20;99.90;;;;;;4966050;28;20211;-65
2023/04/17 09:20:19;;;;;;;15.60;13.13;;;11.70;99.90;;;;;;4964648;28;20212;-65
2023/04/17 09:22:46;;;;;;;17.07;14.10;;;11.70;99.90;;;;;;4966578;28;20227;-66
2023/04/17 09:25:19;;;;;;;16.40;12.40;;;12.00;99.90;;;;;;4967101;28;20252;-75
2023/04/17 09:27:45;;;;;;;14.47;12.97;;;12.40;99.90;;;;;;4967287;28;20209;-70
2023/04/17 09:30:12;;;;;;;14.80;13.20;;;12.60;99.90;;;;;;4965616;28;20228;-65
2023/04/17 09:32:39;;;;;;;13.80;11.80;;;12.60;99.90;;;;;;4965419;28;20227;-65
2023/04/17 09:35:05;;;;;;;13.80;11.43;;;12.20;99.90;;;;;;4967013;28;20682;-64
2023/04/17 09:37:51;;;;;;;15.13;12.20;;;11.90;99.90;;;;;;4968566;28;20304;-64
2023/04/17 09:40:21;;;;;;;14.07;12.27;;;11.60;99.90;;;;;;4967833;28;20209;-64
2023/04/17 09:42:55;;;;;;;15.83;13.40;;;11.50;99.90;;;;;;4965132;28;20221;-64
2023/04/17 09:45:21;;;;;;;16.93;12.90;;;11.50;99.90;;;;;;4964286;28;20197;-65
2023/04/17 09:47:47;;;;;;;13.73;11.53;;;11.40;99.90;;;;;;4965485;28;20598;-65
2023/04/17 09:50:16;;;;;;;14.37;11.33;;;11.70;99.90;;;;;;4965515;28;20207;-65
2023/04/17 09:52:43;;;;;;;12.93;11.53;;;11.90;99.90;;;;;;4967312;28;20195;-65
2023/04/17 09:55:10;;;;;;;16.23;11.80;;;12.20;99.90;;;;;;4966131;28;20209;-65
2023/04/17 09:57:40;;;;;;;14.73;11.70;;;12.30;99.90;;;;;;4966955;28;20635;-64
2023/04/17 10:00:10;;;;;;;13.97;11.27;;;12.20;99.90;;;;;;4965356;28;20578;-65
2023/04/17 10:02:38;;;;;;;14.37;12.67;;;12.30;99.90;;;;;;4966264;28;20735;-65
2023/04/17 10:05:07;;;;;;;13.60;11.23;;;12.50;99.90;;;;;;4966159;28;20198;-65
2023/04/17 10:07:35;;;;;;;13.73;11.63;;;12.30;99.90;;;;;;4970312;28;20227;-64
2023/04/17 10:10:07;;;;;;;12.87;10.73;;;12.50;99.90;;;;;;4965315;28;20208;-65
2023/04/17 10:12:34;;;;;;;13.00;11.47;;;12.50;99.90;;;;;;4963551;28;20204;-65
2023/04/17 10:14:59;;;;;;;11.73;9.77;;;12.30;99.90;;;;;;4965930;28;20775;-66
2023/04/17 10:17:30;;;;;;;17.27;11.30;;;12.00;99.90;;;;;;4964247;28;20674;-74
2023/04/17 10:20:12;;;;;;;14.20;11.17;;;12.00;99.90;;;;;;4989446;28;20214;-88
2023/04/17 10:22:40;;;;;;;15.33;10.07;;;12.20;99.90;;;;;;4972070;28;20587;-75
2023/04/17 10:25:11;;;;;;;13.47;10.17;;;12.50;99.90;;;;;;4966960;28;20234;-74
2023/04/17 10:27:37;;;;;;;14.07;10.80;;;13.10;99.90;;;;;;4971393;28;20709;-75
2023/04/17 10:30:08;;;;;;;9.87;8.53;;;13.30;99.60;;;;;;4966766;28;20199;-76
2023/04/17 10:32:33;;;;;;;11.50;9.73;;;13.20;98.80;;;;;;4967947;28;20215;-78
2023/04/17 10:35:01;;;;;;;12.50;10.93;;;13.40;99.90;;;;;;4966181;28;20536;-77
2023/04/17 10:37:51;;;;;;;14.70;11.13;;;13.60;98.80;;;;;;4965345;28;20311;-75
2023/04/17 10:40:44;;;;;;;11.10;9.37;;;14.40;98.20;;;;;;4962244;28;20291;-75
2023/04/17 10:43:13;;;;;;;10.93;9.33;;;14.60;96.00;;;;;;4963897;28;20732;-75
2023/04/17 10:46:02;;;;;;;10.37;9.17;;;14.60;96.20;;;;;;4965986;28;20720;-74
2023/04/17 10:48:37;;;;;;;12.93;10.03;;;14.10;96.50;;;;;;4968028;28;20200;-75
2023/04/17 10:51:25;;;;;;;13.73;11.37;;;14.40;97.90;;;;;;4965032;28;20207;-75
2023/04/17 10:53:57;;;;;;;15.03;10.80;;;14.70;97.30;;;;;;4967261;28;20214;-88
2023/04/17 10:56:37;;;;;;;14.60;11.27;;;14.70;96.80;;;;;;4976742;28;20295;-91
2023/04/17 10:59:05;;;;;;;13.20;10.67;;;14.50;98.20;;;;;;4972745;28;20233;-83
2023/04/17 11:01:38;;;;;;;12.80;11.50;;;14.20;97.40;;;;;;4976414;28;20208;-87
2023/04/17 11:04:04;;;;;;;11.40;9.47;;;14.00;97.30;;;;;;4974507;28;20211;-92
2023/04/17 11:06:32;;;;;;;11.50;10.30;;;13.50;95.00;;;;;;4970977;28;20208;-81
2023/04/17 11:08:59;;;;;;;11.47;9.73;;;13.50;97.00;;;;;;4972423;28;20211;-78
2023/04/17 11:11:25;;;;;;;12.00;8.83;;;14.00;96.50;;;;;;4970440;28;20666;-81
2023/04/17 11:13:50;;;;;;;12.80;9.83;;;14.40;96.30;;;;;;4966130;28;20206;-78
2023/04/17 11:16:18;;;;;;;13.97;9.27;;;14.40;94.60;;;;;;4967633;28;20212;-74
2023/04/17 11:18:43;;;;;;;14.13;9.30;;;14.50;95.20;;;;;;4968937;28;21049;-78
2023/04/17 11:21:11;;;;;;;11.43;9.77;;;14.40;95.40;;;;;;4970811;28;20205;-86
2023/04/17 11:23:37;;;;;;;11.47;10.07;;;14.00;95.90;;;;;;4975971;28;20225;-84
2023/04/17 11:26:03;;;;;;;14.13;10.43;;;13.90;97.20;;;;;;4977416;28;20297;-82
2023/04/17 11:28:29;;;;;;;12.70;9.57;;;13.40;97.40;;;;;;4978804;28;20289;-83
2023/04/17 11:30:54;;;;;;;11.83;10.60;;;13.10;99.30;;;;;;4980517;28;20219;-81
2023/04/17 11:33:20;;;;;;;12.53;9.27;;;12.80;98.90;;;;;;4988785;28;20241;-90
2023/04/17 11:35:46;;;;;;;11.17;9.97;;;12.50;98.20;;;;;;4985772;28;20699;-92
2023/04/17 11:38:20;;;;;;;11.73;9.87;;;12.50;98.10;;;;;;4966453;28;20198;-88
2023/04/17 11:40:59;;;;;;;13.07;10.40;;;12.50;97.90;;;;;;4970166;28;20206;-87
2023/04/17 11:43:26;;;;;;;12.83;9.93;;;12.80;97.60;;;;;;4974221;28;20217;-87
2023/04/17 11:45:54;;;;;;;14.77;9.97;;;13.00;97.20;;;;;;4977869;28;20681;-79
2023/04/17 11:48:21;;;;;;;11.83;9.47;;;13.20;96.40;;;;;;4974151;28;20213;-79
2023/04/17 11:50:48;;;;;;;11.17;8.87;;;13.20;96.50;;;;;;4968231;28;20210;-80
2023/04/17 11:53:15;;;;;;;11.57;8.93;;;13.70;96.60;;;;;;4970039;28;20237;-80
2023/04/17 11:55:42;;;;;;;11.00;9.57;;;14.00;94.90;;;;;;4967083;28;20218;-80
2023/04/17 11:58:09;;;;;;;12.20;9.30;;;14.10;93.70;;;;;;4965478;28;20262;-80
2023/04/17 12:00:36;;;;;;;12.07;9.90;;;14.20;94.60;;;;;;4966941;28;20271;-79
2023/04/17 12:03:23;;;;;;;17.03;8.80;;;14.50;94.20;;;;;;4966201;28;20225;-80
2023/04/17 12:06:03;;;;;;;10.70;8.63;;;14.30;93.60;;;;;;4953951;28;20711;-83
2023/04/17 12:08:29;;;;;;;9.50;8.50;;;14.00;95.40;;;;;;4944188;28;20263;-65
2023/04/17 12:10:56;;;;;;;13.77;9.10;;;13.90;96.10;;;;;;4951332;28;20205;-66
2023/04/17 12:13:22;;;;;;;11.00;8.93;;;13.50;96.90;;;;;;4969223;28;20238;-65
2023/04/17 12:15:48;;;;;;;12.03;9.63;;;13.20;97.60;;;;;;4968645;28;20208;-65
2023/04/17 12:18:14;;;;;;;15.13;10.40;;;12.90;97.90;;;;;;4966512;28;20618;-70
2023/04/17 12:20:39;;;;;;;11.30;10.10;;;12.70;99.40;;;;;;4967810;28;20230;-68
2023/04/17 12:23:05;;;;;;;16.40;10.83;;;12.50;99.00;;;;;;4967929;28;20217;-65
2023/04/17 12:25:32;;;;;;;13.53;9.53;;;12.30;99.80;;;;;;4967923;28;20559;-66
2023/04/17 12:27:58;;;;;;;14.77;10.13;;;12.30;99.90;;;;;;4967814;28;20214;-66
2023/04/17 12:30:26;;;;;;;12.37;10.53;;;12.30;99.90;;;;;;4966032;28;21070;-66
2023/04/17 12:32:53;;;;;;;15.50;11.57;;;12.10;99.90;;;;;;4950639;28;20779;-65
2023/04/17 12:35:20;;;;;;;12.47;10.10;;;11.80;99.90;;;;;;4968487;28;20206;-65